sensor_id;sensor_type;location;lat;lon;timestamp;temperature;humidity
23120;DHT22;11729;50.836;4.330;2023-04-09T00:01:06;9.70;99.90
23120;DHT22;11729;50.836;4.330;2023-04-09T00:03:32;9.70;99.90
23120;DHT22;11729;50.836;4.330;2023-04-09T00:05:58;9.70;99.90
23120;DHT22;11729;50.836;4.330;2023-04-09T00:08:24;9.80;99.90
23120;DHT22;11729;50.836;4.330;2023-04-09T00:10:51;9.80;99.90
23120;DHT22;11729;50.836;4.330;2023-04-09T00:13:17;9.90;99.90
23120;DHT22;11729;50.836;4.330;2023-04-09T00:15:43;9.90;99.90
23120;DHT22;11729;50.836;4.330;2023-04-09T00:18:08;10.00;99.90
23120;DHT22;11729;50.836;4.330;2023-04-09T00:20:34;9.90;99.90
23120;DHT22;11729;50.836;4.330;2023-04-09T00:23:00;10.00;99.90
23120;DHT22;11729;50.836;4.330;2023-04-09T00:25:26;10.10;99.90
23120;DHT22;11729;50.836;4.330;2023-04-09T00:27:56;10.10;99.90
23120;DHT22;11729;50.836;4.330;2023-04-09T00:30:23;10.00;99.90
23120;DHT22;11729;50.836;4.330;2023-04-09T00:32:48;10.10;99.90
23120;DHT22;11729;50.836;4.330;2023-04-09T00:35:14;10.10;99.90
23120;DHT22;11729;50.836;4.330;2023-04-09T00:37:42;10.00;99.90
23120;DHT22;11729;50.836;4.330;2023-04-09T00:40:08;10.00;99.90
23120;DHT22;11729;50.836;4.330;2023-04-09T00:42:35;10.00;99.90
23120;DHT22;11729;50.836;4.330;2023-04-09T00:45:02;10.10;99.90
23120;DHT22;11729;50.836;4.330;2023-04-09T00:47:28;10.20;99.90
23120;DHT22;11729;50.836;4.330;2023-04-09T00:49:55;10.10;99.90
23120;DHT22;11729;50.836;4.330;2023-04-09T00:52:22;10.00;99.90
23120;DHT22;11729;50.836;4.330;2023-04-09T00:54:50;10.00;99.90
23120;DHT22;11729;50.836;4.330;2023-04-09T00:57:16;10.00;99.90
23120;DHT22;11729;50.836;4.330;2023-04-09T00:59:45;10.10;99.90
23120;DHT22;11729;50.836;4.330;2023-04-09T01:02:11;10.20;99.90
23120;DHT22;11729;50.836;4.330;2023-04-09T01:04:38;10.10;99.90
23120;DHT22;11729;50.836;4.330;2023-04-09T01:07:40;10.20;99.90
23120;DHT22;11729;50.836;4.330;2023-04-09T01:13:07;10.20;99.90
23120;DHT22;11729;50.836;4.330;2023-04-09T01:15:43;10.20;99.90
23120;DHT22;11729;50.836;4.330;2023-04-09T01:18:29;10.20;99.90
23120;DHT22;11729;50.836;4.330;2023-04-09T01:21:04;10.10;99.90
23120;DHT22;11729;50.836;4.330;2023-04-09T01:23:55;10.20;99.90
23120;DHT22;11729;50.836;4.330;2023-04-09T01:29:17;10.30;99.90
23120;DHT22;11729;50.836;4.330;2023-04-09T01:31:44;10.20;99.90
23120;DHT22;11729;50.836;4.330;2023-04-09T01:34:10;10.30;99.90
23120;DHT22;11729;50.836;4.330;2023-04-09T01:36:38;10.30;99.90
23120;DHT22;11729;50.836;4.330;2023-04-09T01:39:05;10.20;99.90
23120;DHT22;11729;50.836;4.330;2023-04-09T01:41:32;10.20;99.90
23120;DHT22;11729;50.836;4.330;2023-04-09T01:44:01;10.10;99.90
23120;DHT22;11729;50.836;4.330;2023-04-09T01:46:28;9.90;99.90
23120;DHT22;11729;50.836;4.330;2023-04-09T01:48:54;9.90;99.90
23120;DHT22;11729;50.836;4.330;2023-04-09T01:51:21;9.80;99.90
23120;DHT22;11729;50.836;4.330;2023-04-09T01:53:48;9.90;99.90
23120;DHT22;11729;50.836;4.330;2023-04-09T01:56:13;9.80;99.90
23120;DHT22;11729;50.836;4.330;2023-04-09T01:58:39;9.80;99.90
23120;DHT22;11729;50.836;4.330;2023-04-09T02:01:09;9.80;99.90
23120;DHT22;11729;50.836;4.330;2023-04-09T02:03:45;9.70;99.90
23120;DHT22;11729;50.836;4.330;2023-04-09T02:06:20;9.60;99.90
23120;DHT22;11729;50.836;4.330;2023-04-09T02:08:49;9.50;99.90
23120;DHT22;11729;50.836;4.330;2023-04-09T02:11:18;9.50;99.90
23120;DHT22;11729;50.836;4.330;2023-04-09T02:13:48;9.50;99.90
23120;DHT22;11729;50.836;4.330;2023-04-09T02:16:16;9.40;99.90
23120;DHT22;11729;50.836;4.330;2023-04-09T02:18:42;9.40;99.90
23120;DHT22;11729;50.836;4.330;2023-04-09T02:21:08;9.30;99.90
23120;DHT22;11729;50.836;4.330;2023-04-09T02:23:35;9.30;99.90
23120;DHT22;11729;50.836;4.330;2023-04-09T02:26:00;9.20;99.90
23120;DHT22;11729;50.836;4.330;2023-04-09T02:28:26;9.20;99.90
23120;DHT22;11729;50.836;4.330;2023-04-09T02:30:52;9.20;99.90
23120;DHT22;11729;50.836;4.330;2023-04-09T02:33:18;9.30;99.90
23120;DHT22;11729;50.836;4.330;2023-04-09T02:35:43;9.20;99.90
23120;DHT22;11729;50.836;4.330;2023-04-09T02:38:09;9.20;99.90
23120;DHT22;11729;50.836;4.330;2023-04-09T02:40:42;9.10;99.90
23120;DHT22;11729;50.836;4.330;2023-04-09T02:43:08;9.20;99.90
23120;DHT22;11729;50.836;4.330;2023-04-09T02:45:34;9.10;99.90
23120;DHT22;11729;50.836;4.330;2023-04-09T02:48:00;9.20;99.90
23120;DHT22;11729;50.836;4.330;2023-04-09T02:50:26;9.30;99.90
23120;DHT22;11729;50.836;4.330;2023-04-09T02:52:52;9.40;99.90
23120;DHT22;11729;50.836;4.330;2023-04-09T02:55:18;9.40;99.90
23120;DHT22;11729;50.836;4.330;2023-04-09T02:57:44;9.40;99.90
23120;DHT22;11729;50.836;4.330;2023-04-09T03:00:11;9.30;99.90
23120;DHT22;11729;50.836;4.330;2023-04-09T03:02:36;9.20;99.90
23120;DHT22;11729;50.836;4.330;2023-04-09T03:05:02;9.30;99.90
23120;DHT22;11729;50.836;4.330;2023-04-09T03:07:28;9.40;99.90
23120;DHT22;11729;50.836;4.330;2023-04-09T03:09:53;9.20;99.90
23120;DHT22;11729;50.836;4.330;2023-04-09T03:12:19;9.20;99.90
23120;DHT22;11729;50.836;4.330;2023-04-09T03:14:45;9.20;99.90
23120;DHT22;11729;50.836;4.330;2023-04-09T03:17:10;9.30;99.90
23120;DHT22;11729;50.836;4.330;2023-04-09T03:19:36;9.40;99.90
23120;DHT22;11729;50.836;4.330;2023-04-09T03:22:01;9.40;99.90
23120;DHT22;11729;50.836;4.330;2023-04-09T03:24:27;9.40;99.90
23120;DHT22;11729;50.836;4.330;2023-04-09T03:26:52;9.40;99.90
23120;DHT22;11729;50.836;4.330;2023-04-09T03:29:18;9.40;99.90
23120;DHT22;11729;50.836;4.330;2023-04-09T03:31:44;9.40;99.90
23120;DHT22;11729;50.836;4.330;2023-04-09T03:34:09;9.40;99.90
23120;DHT22;11729;50.836;4.330;2023-04-09T03:36:35;9.40;99.90
23120;DHT22;11729;50.836;4.330;2023-04-09T03:39:00;9.50;99.90
23120;DHT22;11729;50.836;4.330;2023-04-09T03:41:26;9.50;99.90
23120;DHT22;11729;50.836;4.330;2023-04-09T03:43:52;9.40;99.90
23120;DHT22;11729;50.836;4.330;2023-04-09T03:46:18;9.40;99.90
23120;DHT22;11729;50.836;4.330;2023-04-09T03:48:45;9.30;99.90
23120;DHT22;11729;50.836;4.330;2023-04-09T03:51:12;9.20;99.90
23120;DHT22;11729;50.836;4.330;2023-04-09T03:53:39;9.20;99.90
23120;DHT22;11729;50.836;4.330;2023-04-09T03:56:05;9.20;99.90
23120;DHT22;11729;50.836;4.330;2023-04-09T03:58:31;9.00;99.90
23120;DHT22;11729;50.836;4.330;2023-04-09T04:00:57;9.00;99.90
23120;DHT22;11729;50.836;4.330;2023-04-09T04:03:22;9.10;99.90
23120;DHT22;11729;50.836;4.330;2023-04-09T04:05:48;9.00;99.90
23120;DHT22;11729;50.836;4.330;2023-04-09T04:08:16;8.90;99.90
23120;DHT22;11729;50.836;4.330;2023-04-09T04:10:42;8.80;99.90
23120;DHT22;11729;50.836;4.330;2023-04-09T04:13:08;8.80;99.90
23120;DHT22;11729;50.836;4.330;2023-04-09T04:15:41;8.80;99.90
23120;DHT22;11729;50.836;4.330;2023-04-09T04:18:08;8.80;99.90
23120;DHT22;11729;50.836;4.330;2023-04-09T04:20:35;8.70;99.90
23120;DHT22;11729;50.836;4.330;2023-04-09T04:23:01;8.70;99.90
23120;DHT22;11729;50.836;4.330;2023-04-09T04:25:26;8.70;99.90
23120;DHT22;11729;50.836;4.330;2023-04-09T04:27:52;8.80;99.90
23120;DHT22;11729;50.836;4.330;2023-04-09T04:30:21;8.80;99.90
23120;DHT22;11729;50.836;4.330;2023-04-09T04:32:48;8.60;99.90
23120;DHT22;11729;50.836;4.330;2023-04-09T04:35:14;8.60;99.90
23120;DHT22;11729;50.836;4.330;2023-04-09T04:37:40;8.60;99.90
23120;DHT22;11729;50.836;4.330;2023-04-09T04:40:06;8.60;99.90
23120;DHT22;11729;50.836;4.330;2023-04-09T04:42:32;8.60;99.90
23120;DHT22;11729;50.836;4.330;2023-04-09T04:44:58;8.70;99.90
23120;DHT22;11729;50.836;4.330;2023-04-09T04:47:24;8.70;99.90
23120;DHT22;11729;50.836;4.330;2023-04-09T04:49:50;8.50;99.90
23120;DHT22;11729;50.836;4.330;2023-04-09T04:52:15;8.60;99.90
23120;DHT22;11729;50.836;4.330;2023-04-09T04:54:41;8.70;99.90
23120;DHT22;11729;50.836;4.330;2023-04-09T04:57:06;8.80;99.90
23120;DHT22;11729;50.836;4.330;2023-04-09T04:59:32;8.90;99.90
23120;DHT22;11729;50.836;4.330;2023-04-09T05:01:58;8.90;99.90
23120;DHT22;11729;50.836;4.330;2023-04-09T05:04:24;8.80;99.90
23120;DHT22;11729;50.836;4.330;2023-04-09T05:06:50;8.80;99.90
23120;DHT22;11729;50.836;4.330;2023-04-09T05:09:16;8.90;99.90
23120;DHT22;11729;50.836;4.330;2023-04-09T05:11:41;9.10;99.90
23120;DHT22;11729;50.836;4.330;2023-04-09T05:14:07;8.80;99.90
23120;DHT22;11729;50.836;4.330;2023-04-09T05:16:32;8.80;99.90
23120;DHT22;11729;50.836;4.330;2023-04-09T05:18:59;9.00;99.90
23120;DHT22;11729;50.836;4.330;2023-04-09T05:21:25;9.00;99.90
23120;DHT22;11729;50.836;4.330;2023-04-09T05:23:51;8.80;99.90
23120;DHT22;11729;50.836;4.330;2023-04-09T05:26:17;8.60;99.90
23120;DHT22;11729;50.836;4.330;2023-04-09T05:28:43;8.70;99.90
23120;DHT22;11729;50.836;4.330;2023-04-09T05:31:08;8.50;99.90
23120;DHT22;11729;50.836;4.330;2023-04-09T05:33:38;8.50;99.90
23120;DHT22;11729;50.836;4.330;2023-04-09T05:36:04;8.60;99.90
23120;DHT22;11729;50.836;4.330;2023-04-09T05:38:30;8.70;99.90
23120;DHT22;11729;50.836;4.330;2023-04-09T05:40:55;9.00;99.90
23120;DHT22;11729;50.836;4.330;2023-04-09T05:43:21;9.10;99.90
23120;DHT22;11729;50.836;4.330;2023-04-09T05:45:47;8.90;99.90
23120;DHT22;11729;50.836;4.330;2023-04-09T05:48:12;9.00;99.90
23120;DHT22;11729;50.836;4.330;2023-04-09T05:50:38;9.20;99.90
23120;DHT22;11729;50.836;4.330;2023-04-09T05:53:04;9.40;99.90
23120;DHT22;11729;50.836;4.330;2023-04-09T05:55:32;9.50;99.90
23120;DHT22;11729;50.836;4.330;2023-04-09T05:57:59;9.70;99.90
23120;DHT22;11729;50.836;4.330;2023-04-09T06:00:25;9.80;99.90
23120;DHT22;11729;50.836;4.330;2023-04-09T06:02:50;9.90;99.90
23120;DHT22;11729;50.836;4.330;2023-04-09T06:05:16;9.90;99.90
23120;DHT22;11729;50.836;4.330;2023-04-09T06:07:42;10.00;99.90
23120;DHT22;11729;50.836;4.330;2023-04-09T06:10:07;10.10;99.90
23120;DHT22;11729;50.836;4.330;2023-04-09T06:12:34;10.10;99.90
23120;DHT22;11729;50.836;4.330;2023-04-09T06:15:00;10.10;99.90
23120;DHT22;11729;50.836;4.330;2023-04-09T06:17:28;10.20;99.90
23120;DHT22;11729;50.836;4.330;2023-04-09T06:19:54;10.20;99.90
23120;DHT22;11729;50.836;4.330;2023-04-09T06:22:20;10.30;99.90
23120;DHT22;11729;50.836;4.330;2023-04-09T06:24:45;10.40;99.90
23120;DHT22;11729;50.836;4.330;2023-04-09T06:27:12;10.30;99.90
23120;DHT22;11729;50.836;4.330;2023-04-09T06:29:37;10.50;99.90
23120;DHT22;11729;50.836;4.330;2023-04-09T06:32:03;10.50;99.90
23120;DHT22;11729;50.836;4.330;2023-04-09T06:34:29;11.00;99.90
23120;DHT22;11729;50.836;4.330;2023-04-09T06:36:54;11.30;99.90
23120;DHT22;11729;50.836;4.330;2023-04-09T06:39:20;12.50;99.90
23120;DHT22;11729;50.836;4.330;2023-04-09T06:41:45;13.60;99.90
23120;DHT22;11729;50.836;4.330;2023-04-09T06:44:11;14.70;99.90
23120;DHT22;11729;50.836;4.330;2023-04-09T06:46:37;15.80;99.90
23120;DHT22;11729;50.836;4.330;2023-04-09T06:49:04;16.70;99.90
23120;DHT22;11729;50.836;4.330;2023-04-09T06:51:30;17.40;99.90
23120;DHT22;11729;50.836;4.330;2023-04-09T06:53:56;18.00;99.90
23120;DHT22;11729;50.836;4.330;2023-04-09T06:56:21;18.40;99.90
23120;DHT22;11729;50.836;4.330;2023-04-09T06:58:47;18.80;99.90
23120;DHT22;11729;50.836;4.330;2023-04-09T07:01:13;19.20;99.90
23120;DHT22;11729;50.836;4.330;2023-04-09T07:03:38;19.20;99.90
23120;DHT22;11729;50.836;4.330;2023-04-09T07:06:05;19.30;99.90
23120;DHT22;11729;50.836;4.330;2023-04-09T07:08:30;20.10;99.90
23120;DHT22;11729;50.836;4.330;2023-04-09T07:10:56;20.00;99.90
23120;DHT22;11729;50.836;4.330;2023-04-09T07:13:21;19.50;99.90
23120;DHT22;11729;50.836;4.330;2023-04-09T07:15:47;20.20;99.90
23120;DHT22;11729;50.836;4.330;2023-04-09T07:18:12;20.70;99.40
23120;DHT22;11729;50.836;4.330;2023-04-09T07:20:38;21.10;97.00
23120;DHT22;11729;50.836;4.330;2023-04-09T07:23:04;21.70;95.90
23120;DHT22;11729;50.836;4.330;2023-04-09T07:25:30;21.90;94.80
23120;DHT22;11729;50.836;4.330;2023-04-09T07:27:55;22.10;94.00
23120;DHT22;11729;50.836;4.330;2023-04-09T07:30:21;22.50;93.00
23120;DHT22;11729;50.836;4.330;2023-04-09T07:32:47;22.90;90.70
23120;DHT22;11729;50.836;4.330;2023-04-09T07:35:13;23.30;89.70
23120;DHT22;11729;50.836;4.330;2023-04-09T07:37:39;23.60;87.40
23120;DHT22;11729;50.836;4.330;2023-04-09T07:40:05;23.80;83.30
23120;DHT22;11729;50.836;4.330;2023-04-09T07:42:31;23.80;81.50
23120;DHT22;11729;50.836;4.330;2023-04-09T07:44:57;23.80;81.60
23120;DHT22;11729;50.836;4.330;2023-04-09T07:47:22;23.80;80.60
23120;DHT22;11729;50.836;4.330;2023-04-09T07:49:48;23.00;81.80
23120;DHT22;11729;50.836;4.330;2023-04-09T07:52:14;23.70;81.00
23120;DHT22;11729;50.836;4.330;2023-04-09T07:54:40;23.90;78.50
23120;DHT22;11729;50.836;4.330;2023-04-09T07:57:06;22.40;79.60
23120;DHT22;11729;50.836;4.330;2023-04-09T07:59:35;22.80;83.10
23120;DHT22;11729;50.836;4.330;2023-04-09T08:02:01;23.40;80.50
23120;DHT22;11729;50.836;4.330;2023-04-09T08:04:26;23.80;78.00
23120;DHT22;11729;50.836;4.330;2023-04-09T08:06:52;24.50;76.10
23120;DHT22;11729;50.836;4.330;2023-04-09T08:09:21;24.10;75.50
23120;DHT22;11729;50.836;4.330;2023-04-09T08:11:48;23.70;75.80
23120;DHT22;11729;50.836;4.330;2023-04-09T08:14:16;24.60;75.30
23120;DHT22;11729;50.836;4.330;2023-04-09T08:16:44;24.90;73.70
23120;DHT22;11729;50.836;4.330;2023-04-09T08:19:11;24.60;74.10
23120;DHT22;11729;50.836;4.330;2023-04-09T08:21:38;24.80;72.50
23120;DHT22;11729;50.836;4.330;2023-04-09T08:24:05;25.00;72.40
23120;DHT22;11729;50.836;4.330;2023-04-09T08:26:31;25.20;70.70
23120;DHT22;11729;50.836;4.330;2023-04-09T08:28:57;25.50;70.10
23120;DHT22;11729;50.836;4.330;2023-04-09T08:31:23;25.60;70.60
23120;DHT22;11729;50.836;4.330;2023-04-09T08:33:49;25.70;67.60
23120;DHT22;11729;50.836;4.330;2023-04-09T08:36:15;25.20;68.70
23120;DHT22;11729;50.836;4.330;2023-04-09T08:38:41;23.20;72.80
23120;DHT22;11729;50.836;4.330;2023-04-09T08:41:19;23.70;73.20
23120;DHT22;11729;50.836;4.330;2023-04-09T08:43:48;23.90;73.40
23120;DHT22;11729;50.836;4.330;2023-04-09T08:46:14;24.20;75.30
23120;DHT22;11729;50.836;4.330;2023-04-09T08:48:44;24.80;71.60
23120;DHT22;11729;50.836;4.330;2023-04-09T08:51:15;25.40;71.80
23120;DHT22;11729;50.836;4.330;2023-04-09T08:53:46;25.60;69.10
23120;DHT22;11729;50.836;4.330;2023-04-09T08:56:13;24.80;70.90
23120;DHT22;11729;50.836;4.330;2023-04-09T08:58:43;25.50;70.10
23120;DHT22;11729;50.836;4.330;2023-04-09T09:01:22;25.90;69.80
23120;DHT22;11729;50.836;4.330;2023-04-09T09:04:03;25.80;67.40
23120;DHT22;11729;50.836;4.330;2023-04-09T09:06:39;25.50;67.60
23120;DHT22;11729;50.836;4.330;2023-04-09T09:11:43;25.90;68.50
23120;DHT22;11729;50.836;4.330;2023-04-09T09:14:11;26.60;66.90
23120;DHT22;11729;50.836;4.330;2023-04-09T09:17:03;26.60;67.20
23120;DHT22;11729;50.836;4.330;2023-04-09T09:19:31;26.80;65.50
23120;DHT22;11729;50.836;4.330;2023-04-09T09:22:09;27.60;63.40
23120;DHT22;11729;50.836;4.330;2023-04-09T09:24:50;26.60;63.90
23120;DHT22;11729;50.836;4.330;2023-04-09T09:27:49;26.40;65.30
23120;DHT22;11729;50.836;4.330;2023-04-09T09:30:22;26.70;62.70
23120;DHT22;11729;50.836;4.330;2023-04-09T09:33:07;26.30;64.30
23120;DHT22;11729;50.836;4.330;2023-04-09T09:35:53;27.00;63.90
23120;DHT22;11729;50.836;4.330;2023-04-09T09:38:19;27.20;61.60
23120;DHT22;11729;50.836;4.330;2023-04-09T09:40:46;27.00;60.00
23120;DHT22;11729;50.836;4.330;2023-04-09T09:43:12;27.20;61.40
23120;DHT22;11729;50.836;4.330;2023-04-09T09:45:39;27.40;61.60
23120;DHT22;11729;50.836;4.330;2023-04-09T09:48:05;28.00;59.70
23120;DHT22;11729;50.836;4.330;2023-04-09T09:50:34;28.20;59.10
23120;DHT22;11729;50.836;4.330;2023-04-09T09:53:10;28.10;58.10
23120;DHT22;11729;50.836;4.330;2023-04-09T09:55:40;27.80;57.70
23120;DHT22;11729;50.836;4.330;2023-04-09T09:58:15;27.40;58.30
23120;DHT22;11729;50.836;4.330;2023-04-09T10:00:41;27.90;57.20
23120;DHT22;11729;50.836;4.330;2023-04-09T10:03:20;27.40;57.40
23120;DHT22;11729;50.836;4.330;2023-04-09T10:05:48;27.30;59.20
23120;DHT22;11729;50.836;4.330;2023-04-09T10:08:14;27.20;60.00
23120;DHT22;11729;50.836;4.330;2023-04-09T10:10:40;26.20;58.70
23120;DHT22;11729;50.836;4.330;2023-04-09T10:13:09;25.80;61.40
23120;DHT22;11729;50.836;4.330;2023-04-09T10:15:38;26.20;61.00
23120;DHT22;11729;50.836;4.330;2023-04-09T10:18:04;26.80;59.00
23120;DHT22;11729;50.836;4.330;2023-04-09T10:20:35;26.10;59.30
23120;DHT22;11729;50.836;4.330;2023-04-09T10:23:10;26.20;61.00
23120;DHT22;11729;50.836;4.330;2023-04-09T10:25:39;26.30;60.20
23120;DHT22;11729;50.836;4.330;2023-04-09T10:28:15;26.20;58.70
23120;DHT22;11729;50.836;4.330;2023-04-09T10:30:41;23.80;66.20
23120;DHT22;11729;50.836;4.330;2023-04-09T10:33:12;24.30;68.60
23120;DHT22;11729;50.836;4.330;2023-04-09T10:35:38;25.00;63.70
23120;DHT22;11729;50.836;4.330;2023-04-09T10:38:08;25.60;64.70
23120;DHT22;11729;50.836;4.330;2023-04-09T10:40:41;25.90;63.00
23120;DHT22;11729;50.836;4.330;2023-04-09T10:43:11;26.00;61.00
23120;DHT22;11729;50.836;4.330;2023-04-09T10:45:41;26.10;61.40
23120;DHT22;11729;50.836;4.330;2023-04-09T10:48:13;25.60;62.00
23120;DHT22;11729;50.836;4.330;2023-04-09T10:50:42;26.10;63.30
23120;DHT22;11729;50.836;4.330;2023-04-09T10:53:20;26.80;63.30
23120;DHT22;11729;50.836;4.330;2023-04-09T10:55:48;27.30;60.60
23120;DHT22;11729;50.836;4.330;2023-04-09T10:58:18;26.60;59.50
23120;DHT22;11729;50.836;4.330;2023-04-09T11:00:49;25.80;60.90
23120;DHT22;11729;50.836;4.330;2023-04-09T11:05:47;26.50;62.00
23120;DHT22;11729;50.836;4.330;2023-04-09T11:08:16;26.60;60.00
23120;DHT22;11729;50.836;4.330;2023-04-09T11:10:43;25.50;62.00
23120;DHT22;11729;50.836;4.330;2023-04-09T11:13:13;25.70;63.10
23120;DHT22;11729;50.836;4.330;2023-04-09T11:15:39;26.20;62.60
23120;DHT22;11729;50.836;4.330;2023-04-09T11:18:05;26.80;60.30
23120;DHT22;11729;50.836;4.330;2023-04-09T11:20:39;25.70;62.80
23120;DHT22;11729;50.836;4.330;2023-04-09T11:23:05;25.60;65.80
23120;DHT22;11729;50.836;4.330;2023-04-09T11:25:32;25.40;64.10
23120;DHT22;11729;50.836;4.330;2023-04-09T11:28:00;26.00;64.40
23120;DHT22;11729;50.836;4.330;2023-04-09T11:30:26;25.10;63.40
23120;DHT22;11729;50.836;4.330;2023-04-09T11:32:53;25.30;65.40
23120;DHT22;11729;50.836;4.330;2023-04-09T11:35:20;25.40;67.20
23120;DHT22;11729;50.836;4.330;2023-04-09T11:37:46;25.50;64.80
23120;DHT22;11729;50.836;4.330;2023-04-09T11:40:22;25.10;65.40
23120;DHT22;11729;50.836;4.330;2023-04-09T11:42:50;25.00;65.60
23120;DHT22;11729;50.836;4.330;2023-04-09T11:45:19;24.50;65.40
23120;DHT22;11729;50.836;4.330;2023-04-09T11:47:45;23.60;66.80
23120;DHT22;11729;50.836;4.330;2023-04-09T11:50:12;23.50;70.00
23120;DHT22;11729;50.836;4.330;2023-04-09T11:52:38;24.40;69.20
23120;DHT22;11729;50.836;4.330;2023-04-09T11:55:09;25.50;68.00
23120;DHT22;11729;50.836;4.330;2023-04-09T11:57:45;25.60;66.10
23120;DHT22;11729;50.836;4.330;2023-04-09T12:00:12;25.70;67.10
23120;DHT22;11729;50.836;4.330;2023-04-09T12:02:45;25.90;66.80
23120;DHT22;11729;50.836;4.330;2023-04-09T12:05:20;26.20;65.50
23120;DHT22;11729;50.836;4.330;2023-04-09T12:07:45;25.80;63.10
23120;DHT22;11729;50.836;4.330;2023-04-09T12:10:11;25.80;63.90
23120;DHT22;11729;50.836;4.330;2023-04-09T12:12:44;25.80;63.50
23120;DHT22;11729;50.836;4.330;2023-04-09T12:15:22;25.60;64.10
23120;DHT22;11729;50.836;4.330;2023-04-09T12:17:50;25.90;64.40
23120;DHT22;11729;50.836;4.330;2023-04-09T12:20:31;26.30;63.80
23120;DHT22;11729;50.836;4.330;2023-04-09T12:22:58;26.40;64.40
23120;DHT22;11729;50.836;4.330;2023-04-09T12:25:26;25.80;63.80
23120;DHT22;11729;50.836;4.330;2023-04-09T12:27:52;24.20;69.00
23120;DHT22;11729;50.836;4.330;2023-04-09T12:30:18;24.80;67.80
23120;DHT22;11729;50.836;4.330;2023-04-09T12:32:45;25.80;66.00
23120;DHT22;11729;50.836;4.330;2023-04-09T12:35:10;26.00;65.90
23120;DHT22;11729;50.836;4.330;2023-04-09T12:37:36;25.90;63.80
23120;DHT22;11729;50.836;4.330;2023-04-09T12:40:02;26.70;61.60
23120;DHT22;11729;50.836;4.330;2023-04-09T12:42:28;27.00;62.50
23120;DHT22;11729;50.836;4.330;2023-04-09T12:44:53;27.30;60.60
23120;DHT22;11729;50.836;4.330;2023-04-09T12:47:19;28.00;58.60
23120;DHT22;11729;50.836;4.330;2023-04-09T12:49:44;28.70;56.90
23120;DHT22;11729;50.836;4.330;2023-04-09T12:52:11;28.40;57.10
23120;DHT22;11729;50.836;4.330;2023-04-09T12:54:37;28.50;57.70
23120;DHT22;11729;50.836;4.330;2023-04-09T12:57:04;28.50;55.20
23120;DHT22;11729;50.836;4.330;2023-04-09T12:59:30;28.40;54.90
23120;DHT22;11729;50.836;4.330;2023-04-09T13:01:56;28.30;56.60
23120;DHT22;11729;50.836;4.330;2023-04-09T13:04:21;28.70;56.50
23120;DHT22;11729;50.836;4.330;2023-04-09T13:06:47;29.00;53.20
23120;DHT22;11729;50.836;4.330;2023-04-09T13:09:13;28.00;55.20
23120;DHT22;11729;50.836;4.330;2023-04-09T13:11:39;28.10;56.70
23120;DHT22;11729;50.836;4.330;2023-04-09T13:14:05;28.20;54.50
23120;DHT22;11729;50.836;4.330;2023-04-09T13:16:31;27.50;55.60
23120;DHT22;11729;50.836;4.330;2023-04-09T13:18:58;26.50;57.00
23120;DHT22;11729;50.836;4.330;2023-04-09T13:21:24;26.70;57.50
23120;DHT22;11729;50.836;4.330;2023-04-09T13:23:50;27.40;57.20
23120;DHT22;11729;50.836;4.330;2023-04-09T13:26:16;27.80;54.90
23120;DHT22;11729;50.836;4.330;2023-04-09T13:28:41;27.90;55.60
23120;DHT22;11729;50.836;4.330;2023-04-09T13:31:07;27.30;55.20
23120;DHT22;11729;50.836;4.330;2023-04-09T13:33:33;26.40;56.20
23120;DHT22;11729;50.836;4.330;2023-04-09T13:35:58;25.60;59.40
23120;DHT22;11729;50.836;4.330;2023-04-09T13:38:24;24.00;60.20
23120;DHT22;11729;50.836;4.330;2023-04-09T13:40:49;23.50;63.10
23120;DHT22;11729;50.836;4.330;2023-04-09T13:43:15;23.10;61.40
23120;DHT22;11729;50.836;4.330;2023-04-09T13:45:40;23.50;62.70
23120;DHT22;11729;50.836;4.330;2023-04-09T13:48:06;23.80;62.20
23120;DHT22;11729;50.836;4.330;2023-04-09T13:50:32;23.70;63.20
23120;DHT22;11729;50.836;4.330;2023-04-09T13:52:58;23.40;66.90
23120;DHT22;11729;50.836;4.330;2023-04-09T13:55:27;23.50;67.70
23120;DHT22;11729;50.836;4.330;2023-04-09T13:57:52;23.50;67.00
23120;DHT22;11729;50.836;4.330;2023-04-09T14:00:18;23.70;68.30
23120;DHT22;11729;50.836;4.330;2023-04-09T14:02:44;23.30;67.00
23120;DHT22;11729;50.836;4.330;2023-04-09T14:05:10;23.00;71.30
23120;DHT22;11729;50.836;4.330;2023-04-09T14:07:36;22.70;67.70
23120;DHT22;11729;50.836;4.330;2023-04-09T14:10:02;22.40;65.00
23120;DHT22;11729;50.836;4.330;2023-04-09T14:12:27;22.70;66.70
23120;DHT22;11729;50.836;4.330;2023-04-09T14:14:53;22.70;66.20
23120;DHT22;11729;50.836;4.330;2023-04-09T14:17:18;22.40;65.60
23120;DHT22;11729;50.836;4.330;2023-04-09T14:19:44;22.40;67.50
23120;DHT22;11729;50.836;4.330;2023-04-09T14:22:10;21.90;68.00
23120;DHT22;11729;50.836;4.330;2023-04-09T14:24:35;22.10;69.50
23120;DHT22;11729;50.836;4.330;2023-04-09T14:27:07;22.40;70.60
23120;DHT22;11729;50.836;4.330;2023-04-09T14:29:33;21.50;70.40
23120;DHT22;11729;50.836;4.330;2023-04-09T14:31:58;21.70;71.20
23120;DHT22;11729;50.836;4.330;2023-04-09T14:34:26;22.00;70.00
23120;DHT22;11729;50.836;4.330;2023-04-09T14:36:51;22.00;68.30
23120;DHT22;11729;50.836;4.330;2023-04-09T14:39:17;22.00;68.20
23120;DHT22;11729;50.836;4.330;2023-04-09T14:41:43;21.60;72.00
23120;DHT22;11729;50.836;4.330;2023-04-09T14:44:09;21.90;71.50
23120;DHT22;11729;50.836;4.330;2023-04-09T14:46:35;21.80;68.70
23120;DHT22;11729;50.836;4.330;2023-04-09T14:49:02;21.00;69.70
23120;DHT22;11729;50.836;4.330;2023-04-09T14:51:28;21.10;69.50
23120;DHT22;11729;50.836;4.330;2023-04-09T14:53:58;21.30;69.30
23120;DHT22;11729;50.836;4.330;2023-04-09T14:56:23;20.90;69.60
23120;DHT22;11729;50.836;4.330;2023-04-09T14:58:52;20.50;70.50
23120;DHT22;11729;50.836;4.330;2023-04-09T15:01:18;20.50;73.00
23120;DHT22;11729;50.836;4.330;2023-04-09T15:03:43;19.90;71.80
23120;DHT22;11729;50.836;4.330;2023-04-09T15:06:12;19.80;72.00
23120;DHT22;11729;50.836;4.330;2023-04-09T15:08:38;20.10;73.30
23120;DHT22;11729;50.836;4.330;2023-04-09T15:11:04;20.20;70.80
23120;DHT22;11729;50.836;4.330;2023-04-09T15:13:29;19.80;72.30
23120;DHT22;11729;50.836;4.330;2023-04-09T15:15:55;19.60;73.00
23120;DHT22;11729;50.836;4.330;2023-04-09T15:18:21;19.40;74.70
23120;DHT22;11729;50.836;4.330;2023-04-09T15:20:46;19.30;74.90
23120;DHT22;11729;50.836;4.330;2023-04-09T15:23:12;19.20;75.30
23120;DHT22;11729;50.836;4.330;2023-04-09T15:25:38;18.80;76.10
23120;DHT22;11729;50.836;4.330;2023-04-09T15:28:04;18.80;76.60
23120;DHT22;11729;50.836;4.330;2023-04-09T15:30:31;18.90;76.60
23120;DHT22;11729;50.836;4.330;2023-04-09T15:32:56;19.20;76.60
23120;DHT22;11729;50.836;4.330;2023-04-09T15:35:22;19.20;75.90
23120;DHT22;11729;50.836;4.330;2023-04-09T15:37:54;19.10;75.30
23120;DHT22;11729;50.836;4.330;2023-04-09T15:40:21;19.10;76.10
23120;DHT22;11729;50.836;4.330;2023-04-09T15:42:46;19.10;77.80
23120;DHT22;11729;50.836;4.330;2023-04-09T15:45:15;19.40;77.20
23120;DHT22;11729;50.836;4.330;2023-04-09T15:47:43;19.50;76.90